​ ​

Форум клана ЧПУшников

Информация о пользователе

Привет, Гость! Войдите или зарегистрируйтесь.


Вы здесь » Форум клана ЧПУшников » Лазерные станки


Лазерные станки

Тем 1 страница 80 из 644

Тема Ответов Просмотров Последнее сообщение
1 Важно: Подскажите новичку 4  Kula  [ 1 2 3  9 ]
820 20608 14-09-2021 10:54:59  TATAPNH
2 Важно: Фото готовых работ выполненных на лазере 2  Администратор  [ 1 2 3  10 ]
907 71537 20-05-2021 13:54:11  Dark Knight
172 10492 22-06-2020 15:49:13  Vera
251 35572 12-10-2021 16:23:08  LifeInIce
377 16911 12-10-2021 04:21:10  МОДУЛЬНАЯ ФИЛЬТР-ГРУППА Д
0 34 08-10-2021 10:43:13  Сергей инженер-наладчик
2 133 08-10-2021 09:52:15  Сергей инженер-наладчик
28 1101 22-09-2021 08:45:00  Karbofos
26 1628 21-09-2021 15:54:53  Karbofos
24 453 30-08-2021 17:31:26  BlackOx
4 69 30-08-2021 13:11:33  TATAPNH
3 146 11-08-2021 21:30:42  Добрый вечер
15 262 28-07-2021 14:15:30  Valera5609
2 104 21-07-2021 17:27:24  maks11
1 76 17-07-2021 12:57:11  Valera5609
1 82 17-07-2021 12:50:52  Valera5609
4 489 14-07-2021 07:18:08  Вассс
4 190 04-06-2021 15:09:22  AndreyV
1 95 25-05-2021 19:00:36  Valera5609
197 8875 18-05-2021 09:24:28  garich
0 98 10-05-2021 08:37:38  Sanana
24 10608 26-04-2021 12:47:19  brainmo
95 14837 21-04-2021 16:00:12  Умняшка
107 7534 21-04-2021 11:09:49  Siga
39 3397 20-04-2021 21:08:30  Valera5609
192 6223 20-04-2021 12:54:35  Prisrak
239 26781 19-04-2021 10:20:09  Kinetic
3 131 15-04-2021 12:48:55  су-24
348 39490 10-04-2021 19:39:34  Jek44
6 176 02-04-2021 15:14:00  Valera5609
31 LaserCAD  Valentin25
10 677 01-04-2021 16:02:13  Сергей Одесса
32 Нужна помощь специалистов!  Мастер на все руки
31 1638 29-03-2021 12:18:15  Владимирская?
33 ortur laser master2-20w  Александр Сихаев
7 270 27-03-2021 21:25:23  Valera5609
1 81 24-03-2021 21:35:31  SNS
1 93 24-03-2021 16:56:07  Radiovolna
0 98 23-03-2021 13:17:34  headbI4
0 110 21-03-2021 13:18:28  headbI4
143 16973 16-03-2021 16:57:36  Valera5609
12 368 15-03-2021 23:02:45  ЮгРФ
0 148 15-03-2021 19:40:08  lazukin vlad
1 74 14-03-2021 20:10:46  3aBp
3 101 10-03-2021 20:42:04  Valera5609
3 157 07-03-2021 22:42:59  Valera5609
349 21828 06-03-2021 02:16:05  CNCshnick
15 214 28-02-2021 05:46:23  Dark Knight
2 93 25-02-2021 23:08:23  комса45
47 AutoLaser и TL-403CB  SmileCat  [ 1 2 ]
174 6941 25-02-2021 18:48:56  musicman3
0 78 25-02-2021 13:02:09  meglauk
0 83 22-02-2021 04:58:55  Фом
5 340 18-02-2021 13:15:29  ydav75
15 473 18-02-2021 12:19:55  ydav75
52 RDworks и Autocad  Nimrod94
4 164 12-02-2021 13:43:46  Valera5609
3 139 10-02-2021 19:08:26  agronom_26
7 196 02-02-2021 09:40:03  Dark Night
3 108 28-01-2021 12:04:03  Valera5609
56 Вопрос по рдворкс  Тимур Гильманов
4 209 26-01-2021 09:54:53  AlexiAlexiAlexi
19 1228 26-01-2021 01:37:16  AlexiAlexiAlexi
22 794 25-01-2021 13:20:58  DeniskaUSSR
10 358 19-01-2021 09:06:39  Silvermilenium_
60 Нужен совет  AlekssnderKuznetsov
15 246 16-01-2021 17:34:08  Valera5609
0 64 22-12-2020 22:53:47  nuriiix
2 150 18-12-2020 00:32:20  Kusss
3 186 13-12-2020 16:01:45  Жмурик
0 99 13-12-2020 13:16:01  Michelinbrat
5 524 10-12-2020 02:03:50  bart68rus
13 1354 08-12-2020 21:04:21  Valera5609
51 2583 08-12-2020 12:49:37  Alex_UnDeR
12 728 07-12-2020 11:04:01  Valera5609
29 414 03-12-2020 21:35:55  anvaleriya
3 115 02-12-2020 16:00:09  Outsider
72 1725 02-12-2020 13:00:09  Kuz
72 Trocen vs RUIDA  ptolik
12 1700 27-11-2020 16:28:06  Cergio
4 320 27-11-2020 15:35:42  CNCshnick
3 172 27-11-2020 03:12:56  CNCshnick
75 RDWorksV8 в CorelDRAW X8  bartilord  [ 1 2 ]
174 18357 27-11-2020 00:37:40  djbratislav
11 130 22-11-2020 15:06:45  Valera5609
1 120 19-11-2020 12:59:21  ilya37rus
1 134 19-11-2020 09:30:35  RaysLightsaber
105 7185 17-11-2020 22:18:53  Valera5609
1 140 16-11-2020 05:17:54  Олександр Га Столяр

Вы здесь » Форум клана ЧПУшников » Лазерные станки